FKJ weather

Fukui Airport
Fukui Prefecture, Japan

Public forecast

Using degrees Celsius for public forecast. Weather courtesy of forecast.io.

Closest aviation weather report (METAR) to Fukui Airport

Closest report is Komatsu Airport, 17.5 nm (32.5 km) NNE. Retrieved 2020/08/04 11:00 UTC (50 minutes ago):

RJNK 041100Z VRB01KT 9999 FEW050 SCT180 27/22 Q1014

Closest aviation forecast (TAF) to Fukui Airport

Closest forecast is Komatsu Airport, 17.5 nm (32.5 km) NNE. Retrieved 2020/08/04 06:00 UTC (6 hours ago):

TAF RJNK 040507Z 0406/0512 27006KT 9999 FEW030 BECMG 0506/0509 36006KT